Change the Weather History Date:

Saturday, October 20, 2012

  Actual Average Record
Temperature  
Mean Temperature 62 °F -  
Max Temperature 86 °F 70 °F 77 °F (2014)
Min Temperature 38 °F 34 °F 33 °F (2013)
Degree Days  
Heating Degree Days 4    
Growing Degree Days 12 (Base 50)    
Moisture  
Dew Point 19 °F    
Average Humidity 27    
Maximum Humidity 61    
Minimum Humidity 5    
Precipitation  
Precipitation 0.00 in - - ()
Sea Level Pressure  
Sea Level Pressure 29.73 in    
Wind  
Wind Speed 10 mph ()    
Max Wind Speed 18 mph    
Max Gust Speed 24 mph    
Visibility 10.0 miles    
Events      
Averages and records for this station are not official NWS values.
T = Trace of Precipitation, MM = Missing Value Source: Averaged Metar Reports

Daily Weather History Graph

Daily Weather History Graph

Search for Another Location

Airport or City:

Trip Planner

Search our weather history database for the weather conditions in past years. The results will help you decide how hot, cold, wet, or windy it might be!

Date:

Astronomy

Oct. 20, 2012 Rise Set
Actual Time 8:03 AM CDT 6:59 PM CDT
Civil Twilight 7:35 AM CDT 7:27 PM CDT
Nautical Twilight 7:04 AM CDT 7:58 PM CDT
Astronomical Twilight 6:33 AM CDT 8:29 PM CDT
Moon 1:40 PM CDT (10/20) 11:48 PM CDT (10/20)
Length of Visible Light 11h 51m
Length of Day
10h 56m
Waxing Crescent, 34% of the Moon is Illuminated
Oct 20
Waxing Crescent
Oct 21
First Quarter
Oct 29
Full
Nov 6
Last Quarter
Nov 13
New

Hourly Weather History & Observations

Time (CDT) Temp. Windchill Dew Point Humidity Pressure Visibility Wind Dir Wind Speed Gust Speed Precip Events Conditions
12:15 AM 49.6 °F - 23.0 °F 35% 29.81 in 10.0 mi SW 11.5 mph - N/A   Clear
12:35 AM 48.0 °F - 23.5 °F 38% 29.80 in 10.0 mi SW 10.4 mph - N/A   Clear
12:55 AM 47.5 °F - 23.7 °F 39% 29.79 in 10.0 mi SW 10.4 mph - N/A   Clear
1:15 AM 47.1 °F - 23.7 °F 40% 29.79 in 10.0 mi WSW 10.4 mph - N/A   Clear
1:35 AM 47.1 °F - 23.7 °F 40% 29.79 in 10.0 mi WSW 10.4 mph - N/A   Clear
1:55 AM 46.4 °F 41.1 °F 23.7 °F 41% 29.79 in 10.0 mi WSW 11.5 mph - N/A   Clear
2:15 AM 45.7 °F 40.6 °F 23.9 °F 42% 29.79 in 10.0 mi SW 10.4 mph - N/A   Clear
2:35 AM 45.0 °F 40.1 °F 23.9 °F 44% 29.79 in 10.0 mi WSW 9.2 mph - N/A   Clear
2:55 AM 44.6 °F 39.7 °F 23.9 °F 44% 29.79 in 10.0 mi WSW 9.2 mph - N/A   Clear
3:15 AM 44.1 °F 38.6 °F 24.1 °F 45% 29.79 in 10.0 mi WSW 10.4 mph - N/A   Clear
3:35 AM 42.8 °F 37.5 °F 24.4 °F 48% 29.79 in 10.0 mi SW 9.2 mph - N/A   Clear
3:55 AM 44.1 °F 39.0 °F 24.1 °F 45% 29.78 in 10.0 mi WSW 9.2 mph - N/A   Clear
4:15 AM 43.5 °F 38.9 °F 23.9 °F 46% 29.78 in 10.0 mi WSW 8.1 mph - N/A   Clear
4:35 AM 43.7 °F 38.1 °F 24.4 °F 47% 29.77 in 10.0 mi WSW 10.4 mph - N/A   Clear
4:55 AM 43.2 °F 37.9 °F 24.4 °F 48% 29.77 in 10.0 mi SW 9.2 mph - N/A   Clear
5:15 AM 43.0 °F 37.2 °F 24.3 °F 48% 29.77 in 10.0 mi WSW 10.4 mph - N/A   Clear
5:35 AM 43.0 °F 37.2 °F 24.4 °F 48% 29.77 in 10.0 mi SW 10.4 mph - N/A   Clear
5:55 AM 43.9 °F 37.9 °F 24.3 °F 46% 29.77 in 10.0 mi SW 11.5 mph - N/A   Clear
6:15 AM 42.8 °F 36.6 °F 24.4 °F 48% 29.77 in 10.0 mi WSW 11.5 mph - N/A   Clear
6:35 AM 42.6 °F 37.2 °F 24.4 °F 49% 29.77 in 10.0 mi WSW 9.2 mph - N/A   Clear
6:55 AM 42.6 °F 37.8 °F 24.4 °F 49% 29.78 in 10.0 mi WSW 8.1 mph - N/A   Clear
7:15 AM 40.6 °F 34.8 °F 24.8 °F 53% 29.78 in 10.0 mi WSW 9.2 mph - N/A   Clear
7:35 AM 38.3 °F 32.5 °F 25.5 °F 60% 29.79 in 10.0 mi West 8.1 mph - N/A   Clear
7:55 AM 38.3 °F 32.5 °F 25.3 °F 60% 29.78 in 10.0 mi WSW 8.1 mph - N/A   Clear
8:15 AM 38.1 °F 32.9 °F 25.5 °F 61% 29.79 in 10.0 mi WSW 6.9 mph - N/A   Clear
8:35 AM 39.6 °F 33.0 °F 25.7 °F 58% 29.79 in 10.0 mi SW 10.4 mph - N/A   Clear
8:55 AM 43.5 °F 37.5 °F 25.9 °F 50% 29.79 in 10.0 mi SW 11.5 mph - N/A   Clear
9:15 AM 46.8 °F - 25.2 °F 43% 29.79 in 10.0 mi WSW 11.5 mph - N/A   Clear
9:35 AM 49.6 °F - 24.6 °F 38% 29.79 in 10.0 mi WSW 15.0 mph - N/A   Clear
9:55 AM 50.9 °F - 24.8 °F 36% 29.79 in 10.0 mi WSW 12.7 mph - N/A   Clear
10:15 AM 53.2 °F - 24.3 °F 32% 29.80 in 10.0 mi WSW 11.5 mph - N/A   Clear
10:35 AM 57.7 °F - 24.3 °F 28% 29.80 in 10.0 mi SW 10.4 mph - N/A   Clear
10:55 AM 60.4 °F - 24.3 °F 25% 29.81 in 10.0 mi WSW 5.8 mph - N/A   Clear
11:15 AM 64.9 °F - 24.4 °F 22% 29.80 in 10.0 mi WSW 4.6 mph - N/A   Clear
11:35 AM 69.4 °F - 23.0 °F 17% 29.79 in 10.0 mi SW 3.5 mph - N/A   Clear
11:55 AM 72.1 °F - 22.6 °F 16% 29.78 in 10.0 mi SW 4.6 mph - N/A   Clear
12:15 PM 77.0 °F - 16.9 °F 10% 29.78 in 10.0 mi WSW 9.2 mph - N/A   Clear
12:35 PM 81.3 °F - 12.2 °F 7% 29.76 in 10.0 mi SW 12.7 mph - N/A   Clear
12:55 PM 82.0 °F - 7.9 °F 6% 29.76 in 10.0 mi WSW 10.4 mph - N/A   Clear
1:15 PM 81.7 °F - 8.4 °F 6% 29.74 in 10.0 mi WSW 9.2 mph - N/A   Clear
1:35 PM 84.2 °F - 7.7 °F 6% 29.72 in 10.0 mi West 9.2 mph 17.3 mph N/A   Clear
1:55 PM 82.0 °F - 9.1 °F 6% 29.71 in 10.0 mi SW 5.8 mph - N/A   Clear
2:15 PM 82.8 °F - 8.2 °F 6% 29.71 in 10.0 mi WSW 9.2 mph 17.3 mph N/A   Clear
2:35 PM 84.2 °F - 8.1 °F 6% 29.69 in 10.0 mi SW 13.8 mph - N/A   Clear
2:55 PM 83.8 °F - 8.8 °F 6% 29.68 in 10.0 mi West 8.1 mph - N/A   Clear
3:15 PM 85.1 °F - 7.5 °F 5% 29.67 in 10.0 mi SW 11.5 mph - N/A   Clear
3:35 PM 85.1 °F - 7.9 °F 5% 29.66 in 10.0 mi SW 10.4 mph - N/A   Clear
3:55 PM 85.1 °F - 8.6 °F 6% 29.66 in 10.0 mi WSW 3.5 mph - N/A   Clear
4:15 PM 84.0 °F - 9.3 °F 6% 29.66 in 10.0 mi WSW 4.6 mph - N/A   Clear
4:35 PM 83.5 °F - 10.0 °F 6% 29.66 in 10.0 mi WSW 3.5 mph - N/A   Clear
4:55 PM 82.9 °F - 8.8 °F 6% 29.67 in 10.0 mi SSW 10.4 mph - N/A   Clear
5:15 PM 82.4 °F - 9.3 °F 6% 29.67 in 10.0 mi SW 9.2 mph - N/A   Clear
5:35 PM 80.6 °F - 13.8 °F 8% 29.67 in 10.0 mi SSW 5.8 mph - N/A   Clear
5:55 PM 77.9 °F - 17.4 °F 10% 29.67 in 10.0 mi SSW 5.8 mph - N/A   Clear
6:15 PM 76.1 °F - 18.9 °F 12% 29.66 in 10.0 mi South 8.1 mph - N/A   Clear
6:35 PM 73.0 °F - 19.4 °F 13% 29.66 in 10.0 mi South 9.2 mph - N/A   Clear
6:55 PM 71.2 °F - 17.8 °F 13% 29.66 in 10.0 mi South 11.5 mph - N/A   Clear
7:15 PM 69.1 °F - 16.3 °F 13% 29.66 in 10.0 mi South 8.1 mph - N/A   Clear
7:35 PM 66.2 °F - 16.2 °F 15% 29.66 in 7.0 mi South 10.4 mph - N/A   Clear
7:55 PM 67.3 °F - 14.0 °F 13% 29.66 in 10.0 mi South 11.5 mph - N/A   Clear
8:15 PM 65.5 °F - 14.9 °F 14% 29.67 in 10.0 mi South 12.7 mph - N/A   Clear
8:35 PM 64.4 °F - 16.2 °F 16% 29.66 in 10.0 mi South 12.7 mph - N/A   Clear
8:55 PM 64.2 °F - 17.8 °F 17% 29.66 in 10.0 mi South 13.8 mph - N/A   Clear
9:15 PM 64.4 °F - 18.5 °F 17% 29.66 in 10.0 mi South 13.8 mph - N/A   Clear
9:35 PM 64.6 °F - 19.0 °F 17% 29.66 in 10.0 mi South 15.0 mph - N/A   Clear
9:55 PM 64.4 °F - 20.1 °F 18% 29.66 in 10.0 mi South 16.1 mph - N/A   Clear
10:15 PM 65.3 °F - 19.4 °F 17% 29.66 in 10.0 mi South 18.4 mph - N/A   Clear
10:35 PM 65.5 °F - 19.6 °F 17% 29.66 in 10.0 mi South 18.4 mph 24.2 mph N/A   Clear
10:55 PM 64.0 °F - 20.7 °F 19% 29.67 in 10.0 mi South 16.1 mph - N/A   Clear
11:35 PM 63.5 °F - 23.0 °F 21% 29.67 in 10.0 mi South 18.4 mph - N/A   Clear
11:55 PM 63.7 °F - 23.7 °F 22% 29.67 in 10.0 mi South 18.4 mph - N/A   Clear